createdAt,value
2022-08-22T00:02:55.560Z,97188.13
2022-08-22T00:03:11.928Z,97174.84
2022-08-22T00:03:18.408Z,97174.56
2022-08-22T00:06:37.635Z,97176.69
2022-08-22T00:09:38.967Z,97180.34
2022-08-22T00:12:51.994Z,97182.06
2022-08-22T00:16:15.254Z,97174.72
2022-08-22T00:19:25.945Z,97175.44
2022-08-22T00:22:48.694Z,97183.19
2022-08-22T00:25:51.476Z,97175.69
2022-08-22T00:29:01.876Z,97170.19
2022-08-22T00:32:09.049Z,97173.34
2022-08-22T00:35:29.808Z,97177.63
2022-08-22T00:38:37.233Z,97176.41
2022-08-22T00:41:42.065Z,97179.72
2022-08-22T00:44:43.504Z,97168.03
2022-08-22T00:48:10.375Z,97171.88
2022-08-22T00:51:22.472Z,97160.47
2022-08-22T00:54:42.446Z,97163.41
2022-08-22T00:58:03.097Z,97177.34
2022-08-22T01:01:06.840Z,97175.88
2022-08-22T01:04:27.093Z,97172.81
2022-08-22T01:07:37.113Z,97166.94
2022-08-22T01:10:58.379Z,97174.78
2022-08-22T01:14:02.903Z,97175.72
2022-08-22T01:17:07.280Z,97166.69
2022-08-22T01:20:20.864Z,97176.25
2022-08-22T01:23:41.123Z,97173.16
2022-08-22T01:26:57.764Z,97167.44
2022-08-22T01:30:18.068Z,97173.91
2022-08-22T01:33:20.257Z,97160.75
2022-08-22T01:36:24.827Z,97171.13
2022-08-22T01:39:44.956Z,97171.50
2022-08-22T01:42:58.631Z,97163.34
2022-08-22T01:46:12.027Z,97167.56
2022-08-22T01:49:16.222Z,97170.31
2022-08-22T01:52:28.566Z,97161.38
2022-08-22T01:55:46.080Z,97169.91
2022-08-22T01:58:54.916Z,97166.19
2022-08-22T02:02:14.175Z,97167.28
2022-08-22T02:05:31.679Z,97164.59
2022-08-22T02:08:52.368Z,97159.19
2022-08-22T02:12:13.852Z,97163.78
2022-08-22T02:15:34.874Z,97169.94
2022-08-22T02:18:55.020Z,97168.66
2022-08-22T02:21:56.448Z,97180.47
2022-08-22T02:25:16.631Z,97180.06
2022-08-22T02:28:56.575Z,97178.91
2022-08-22T02:32:03.238Z,97177.97
2022-08-22T02:35:10.768Z,97175.53
2022-08-22T02:38:25.228Z,97178.66
2022-08-22T02:41:30.994Z,97165.06
2022-08-22T02:44:38.554Z,97170.44
2022-08-22T02:47:46.005Z,97171.16
2022-08-22T02:51:06.385Z,97163.22
2022-08-22T02:54:26.141Z,97164.13
2022-08-22T02:57:39.352Z,97164.47
2022-08-22T03:00:48.212Z,97162.28
2022-08-22T03:03:50.670Z,97162.88
2022-08-22T03:06:58.026Z,97155.94
2022-08-22T03:10:05.583Z,97155.81
2022-08-22T03:13:11.835Z,97158.03
2022-08-22T03:16:16.358Z,97154.41
2022-08-22T03:19:24.798Z,97156.72
2022-08-22T03:22:42.037Z,97154.88
2022-08-22T03:25:58.599Z,97158.34
2022-08-22T03:29:06.510Z,97153.13
2022-08-22T03:32:11.239Z,97155.78
2022-08-22T03:35:22.840Z,97153.28
2022-08-22T03:38:28.825Z,97150.34
2022-08-22T03:41:41.732Z,97155.44
2022-08-22T03:44:43.125Z,97145.19
2022-08-22T03:47:57.989Z,97149.44
2022-08-22T03:51:18.407Z,97150.84
2022-08-22T03:54:38.601Z,97150.06
2022-08-22T03:57:59.056Z,97159.63
2022-08-22T04:01:06.689Z,97169.25
2022-08-22T04:04:11.200Z,97169.50
2022-08-22T04:07:16.996Z,97170.94
2022-08-22T04:10:48.069Z,97160.38
2022-08-22T04:13:54.830Z,97173.53
2022-08-22T04:17:11.182Z,97170.47
2022-08-22T04:20:31.767Z,97179.31
2022-08-22T04:23:48.752Z,97179.72
2022-08-22T04:26:56.416Z,97184.63
2022-08-22T04:30:27.265Z,97171.47
2022-08-22T04:33:31.506Z,97172.81
2022-08-22T04:36:37.893Z,97173.28
2022-08-22T04:39:49.486Z,97173.03
2022-08-22T04:43:11.388Z,97176.28
2022-08-22T04:46:18.440Z,97180.56
2022-08-22T04:49:28.928Z,97183.78
2022-08-22T04:52:49.072Z,97195.50
2022-08-22T04:56:09.212Z,97190.16
2022-08-22T04:59:12.316Z,97188.81
2022-08-22T05:02:21.038Z,97193.13
2022-08-22T05:05:26.705Z,97193.13
2022-08-22T05:08:32.090Z,97199.69
2022-08-22T05:11:35.525Z,97205.50
2022-08-22T05:14:40.079Z,97193.44
2022-08-22T05:17:43.649Z,97198.25
2022-08-22T05:20:47.384Z,97197.22
2022-08-22T05:23:53.873Z,97204.47
2022-08-22T05:26:57.185Z,97197.94
2022-08-22T05:30:02.557Z,97193.66
2022-08-22T05:33:23.591Z,97198.41
2022-08-22T05:36:27.393Z,97200.66
2022-08-22T05:39:29.889Z,97206.50
2022-08-22T05:42:34.100Z,97211.31
2022-08-22T05:45:36.244Z,97212.97
2022-08-22T05:48:42.261Z,97214.88
2022-08-22T05:51:51.066Z,97218.94
2022-08-22T05:55:04.777Z,97213.22
2022-08-22T05:58:18.453Z,97209.59
2022-08-22T06:01:35.892Z,97210.41
2022-08-22T06:04:44.885Z,97224.09
2022-08-22T06:07:47.956Z,97213.09
2022-08-22T06:10:52.621Z,97220.88
2022-08-22T06:14:03.783Z,97221.81
2022-08-22T06:17:10.289Z,97226.00
2022-08-22T06:20:16.572Z,97223.44
2022-08-22T06:23:28.171Z,97222.03
2022-08-22T06:26:35.897Z,97218.19
2022-08-22T06:29:42.567Z,97221.34
2022-08-22T06:33:00.026Z,97227.81
2022-08-22T06:36:30.708Z,97218.50
2022-08-22T06:39:34.203Z,97230.78
2022-08-22T06:42:40.445Z,97227.63
2022-08-22T06:45:42.052Z,97222.16
2022-08-22T06:48:43.930Z,97216.22
2022-08-22T06:51:46.539Z,97218.06
2022-08-22T06:54:49.290Z,97213.59
2022-08-22T06:58:05.412Z,97216.59
2022-08-22T07:01:11.785Z,97221.69
2022-08-22T07:04:14.066Z,97226.41
2022-08-22T07:07:17.696Z,97227.06
2022-08-22T07:10:21.848Z,97221.25
2022-08-22T07:13:25.107Z,97227.09
2022-08-22T07:16:34.862Z,97212.91
2022-08-22T07:19:37.964Z,97216.91
2022-08-22T07:22:39.473Z,97212.47
2022-08-22T07:25:49.673Z,97207.56
2022-08-22T07:28:58.372Z,97204.41
2022-08-22T07:32:12.181Z,97211.25
2022-08-22T07:35:23.326Z,97216.69
2022-08-22T07:38:35.635Z,97213.91
2022-08-22T07:41:47.541Z,97213.88
2022-08-22T07:44:51.917Z,97209.28
2022-08-22T07:47:57.063Z,97210.00
2022-08-22T07:51:08.247Z,97206.41
2022-08-22T07:54:11.564Z,97205.94
2022-08-22T07:57:15.445Z,97209.66
2022-08-22T08:00:19.550Z,97211.25
2022-08-22T08:03:21.937Z,97211.53
2022-08-22T08:06:24.825Z,97216.34
2022-08-22T08:09:32.949Z,97215.63
2022-08-22T08:12:36.138Z,97223.81
2022-08-22T08:15:39.336Z,97225.84
2022-08-22T08:18:41.174Z,97219.50
2022-08-22T08:21:49.573Z,97222.53
2022-08-22T08:24:53.085Z,97226.78
2022-08-22T08:28:14.005Z,97225.81
2022-08-22T08:31:15.663Z,97223.66
2022-08-22T08:34:20.767Z,97220.84
2022-08-22T08:37:41.142Z,97225.63
2022-08-22T08:40:55.632Z,97223.69
2022-08-22T08:44:15.803Z,97214.78
2022-08-22T08:47:17.240Z,97215.22
2022-08-22T08:50:21.712Z,97210.84
2022-08-22T08:53:32.744Z,97211.50
2022-08-22T08:56:54.439Z,97207.88
2022-08-22T09:00:12.462Z,97210.81
2022-08-22T09:03:32.454Z,97205.38
2022-08-22T09:06:43.011Z,97210.44
2022-08-22T09:09:57.261Z,97198.72
2022-08-22T09:13:11.869Z,97203.59
2022-08-22T09:20:21.760Z,97206.53
2022-08-22T09:23:39.254Z,97201.47
2022-08-22T09:26:40.655Z,97206.09
2022-08-22T09:29:57.078Z,97198.63
2022-08-22T09:33:14.759Z,97197.56
2022-08-22T09:36:22.069Z,97192.94
2022-08-22T09:39:49.472Z,97200.88
2022-08-22T09:43:12.906Z,97203.97
2022-08-22T09:46:32.167Z,97193.28
2022-08-22T09:49:47.452Z,97196.66
2022-08-22T09:52:49.120Z,97197.91
2022-08-22T09:56:15.253Z,97202.06
2022-08-22T09:59:34.888Z,97198.13
2022-08-22T10:02:55.115Z,97198.03
2022-08-22T10:06:01.361Z,97201.00
2022-08-22T10:09:35.328Z,97205.25
2022-08-22T10:12:46.478Z,97204.19
2022-08-22T10:15:50.169Z,97194.53
2022-08-22T10:18:53.276Z,97198.56
2022-08-22T10:21:59.560Z,97203.16
2022-08-22T10:25:11.428Z,97196.00
2022-08-22T10:28:31.926Z,97197.97
2022-08-22T10:31:45.085Z,97187.00
2022-08-22T10:35:01.903Z,97176.03
2022-08-22T10:38:10.783Z,97181.19
2022-08-22T10:41:25.975Z,97181.06
2022-08-22T10:44:33.836Z,97180.34
2022-08-22T10:47:41.830Z,97172.91
2022-08-22T10:50:46.680Z,97170.34
2022-08-22T10:54:00.632Z,97159.13
2022-08-22T10:57:08.290Z,97152.91
2022-08-22T11:00:29.110Z,97155.75
2022-08-22T11:03:48.803Z,97154.88
2022-08-22T11:07:13.509Z,97155.03
2022-08-22T11:10:23.033Z,97145.19
2022-08-22T11:13:36.546Z,97140.41
2022-08-22T11:16:41.743Z,97142.31
2022-08-22T11:19:46.549Z,97149.25
2022-08-22T11:22:55.504Z,97140.97
2022-08-22T11:26:15.323Z,97139.34
2022-08-22T11:30:01.427Z,97133.13
2022-08-22T11:33:04.317Z,97131.53
2022-08-22T11:36:16.459Z,97136.28
2022-08-22T11:39:24.805Z,97133.91
2022-08-22T11:42:26.138Z,97132.03
2022-08-22T11:45:36.797Z,97129.16
2022-08-22T11:48:48.858Z,97125.59
2022-08-22T11:51:57.216Z,97123.00
2022-08-22T11:55:21.631Z,97121.00
2022-08-22T11:58:49.314Z,97120.22
2022-08-22T12:02:03.999Z,97114.75
2022-08-22T12:05:13.694Z,97110.16
2022-08-22T12:08:40.691Z,97107.38
2022-08-22T12:11:55.632Z,97120.03
2022-08-22T12:15:13.209Z,97110.44
2022-08-22T12:18:30.495Z,97110.19
2022-08-22T12:21:46.932Z,97104.50
2022-08-22T12:25:02.734Z,97105.56
2022-08-22T12:28:07.587Z,97101.88
2022-08-22T12:31:10.282Z,97107.91
2022-08-22T12:34:18.207Z,97112.50
2022-08-22T12:37:24.363Z,97105.19
2022-08-22T12:40:26.332Z,97106.28
2022-08-22T12:43:42.877Z,97106.00
2022-08-22T12:46:47.650Z,97097.50
2022-08-22T12:50:01.138Z,97090.47
2022-08-22T12:53:20.077Z,97097.00
2022-08-22T12:56:21.824Z,97085.63
2022-08-22T12:59:27.118Z,97092.09
2022-08-22T13:02:31.587Z,97093.41
2022-08-22T13:05:40.914Z,97092.47
2022-08-22T13:08:44.604Z,97078.56
2022-08-22T13:11:49.396Z,97076.78
2022-08-22T13:14:54.397Z,97078.91
2022-08-22T13:18:08.657Z,97074.00
2022-08-22T13:21:21.935Z,97075.53
2022-08-22T13:24:39.283Z,97071.22
2022-08-22T13:27:51.373Z,97067.09
2022-08-22T13:30:53.732Z,97075.78
2022-08-22T13:34:03.421Z,97066.78
2022-08-22T13:37:11.337Z,97061.72
2022-08-22T13:40:14.406Z,97064.50
2022-08-22T13:43:36.840Z,97070.53
2022-08-22T13:46:52.962Z,97064.25
2022-08-22T13:50:07.445Z,97066.53
2022-08-22T13:53:15.410Z,97057.81
2022-08-22T13:56:20.830Z,97052.25
2022-08-22T13:59:50.285Z,97058.44
2022-08-22T14:03:14.212Z,97052.94
2022-08-22T14:06:37.516Z,97058.94
2022-08-22T14:09:39.832Z,97056.47
2022-08-22T14:12:50.549Z,97055.66
2022-08-22T14:15:58.583Z,97058.91
2022-08-22T14:19:11.554Z,97052.09
2022-08-22T14:22:21.648Z,97041.94
2022-08-22T14:25:35.145Z,97042.75
2022-08-22T14:28:38.115Z,97045.38
2022-08-22T14:31:39.875Z,97037.91
2022-08-22T14:34:45.509Z,97043.22
2022-08-22T14:37:51.792Z,97038.38
2022-08-22T14:40:55.986Z,97033.94
2022-08-22T14:44:03.797Z,97039.06
2022-08-22T14:47:08.402Z,97037.75
2022-08-22T14:50:43.070Z,97032.53
2022-08-22T14:53:44.880Z,97034.78
2022-08-22T14:56:48.185Z,97028.09
2022-08-22T14:59:51.650Z,97026.41
2022-08-22T15:02:54.533Z,97032.78
2022-08-22T15:05:56.238Z,97027.22
2022-08-22T15:08:59.901Z,97029.28
2022-08-22T15:12:04.062Z,97021.81
2022-08-22T15:15:10.102Z,97024.91
2022-08-22T15:18:34.116Z,97016.25
2022-08-22T15:21:37.189Z,97025.75
2022-08-22T15:25:03.394Z,97021.63
2022-08-22T15:28:07.839Z,97022.09
2022-08-22T15:31:17.485Z,97018.69
2022-08-22T15:34:48.613Z,97010.97
2022-08-22T15:37:53.786Z,97018.88
2022-08-22T15:40:56.536Z,97016.47
2022-08-22T15:44:32.712Z,97012.06
2022-08-22T15:47:38.564Z,97010.28
2022-08-22T15:50:55.006Z,96996.84
2022-08-22T15:54:03.416Z,97004.59
2022-08-22T15:57:29.208Z,97004.38
2022-08-22T16:00:43.781Z,97008.91
2022-08-22T16:04:07.809Z,96999.00
2022-08-22T16:07:35.530Z,96996.63
2022-08-22T16:10:46.220Z,96996.53
2022-08-22T16:13:48.157Z,96997.03
2022-08-22T16:16:57.521Z,97004.50
2022-08-22T16:20:07.762Z,97002.44
2022-08-22T16:23:11.584Z,97004.56
2022-08-22T16:26:15.383Z,96996.69
2022-08-22T16:29:25.635Z,97001.13
2022-08-22T16:32:28.228Z,97003.50
2022-08-22T16:35:48.537Z,97000.78
2022-08-22T16:38:52.805Z,97004.41
2022-08-22T16:41:56.274Z,96996.13
2022-08-22T16:44:57.679Z,96995.44
2022-08-22T16:48:13.592Z,96992.50
2022-08-22T16:51:18.426Z,96996.78
2022-08-22T16:54:39.844Z,96996.53
2022-08-22T16:57:54.476Z,97004.34
2022-08-22T17:01:03.586Z,97003.91
2022-08-22T17:04:18.298Z,97009.31
2022-08-22T17:07:38.071Z,97006.38
2022-08-22T17:10:58.232Z,97004.19
2022-08-22T17:14:09.085Z,97008.47
2022-08-22T17:17:25.492Z,97011.63
2022-08-22T17:20:34.431Z,97007.44
2022-08-22T17:23:54.321Z,97012.34
2022-08-22T17:27:14.479Z,97007.59
2022-08-22T17:30:21.039Z,97015.47
2022-08-22T17:33:42.340Z,97011.28
2022-08-22T17:37:02.540Z,97026.59
2022-08-22T17:40:13.096Z,97021.34
2022-08-22T17:43:27.013Z,97032.53
2022-08-22T17:46:33.264Z,97032.91
2022-08-22T17:49:46.607Z,97030.91
2022-08-22T17:52:51.461Z,97030.63
2022-08-22T17:55:52.904Z,97031.56
2022-08-22T17:58:59.517Z,97037.56
2022-08-22T18:02:16.332Z,97037.19
2022-08-22T18:05:20.228Z,97045.53
2022-08-22T18:11:51.951Z,97052.91
2022-08-22T18:14:59.325Z,97045.69
2022-08-22T18:18:00.824Z,97051.19
2022-08-22T18:21:06.357Z,97054.34
2022-08-22T18:24:10.866Z,97056.06
2022-08-22T18:27:30.056Z,97052.72
2022-08-22T18:30:48.225Z,97057.97
2022-08-22T18:33:55.186Z,97064.03
2022-08-22T18:37:05.046Z,97065.94
2022-08-22T18:40:11.199Z,97081.56
2022-08-22T18:43:17.892Z,97081.78
2022-08-22T18:46:27.611Z,97082.97
2022-08-22T18:49:37.439Z,97079.88
2022-08-22T18:52:39.538Z,97087.31
2022-08-22T18:55:49.458Z,97093.56
2022-08-22T18:59:06.022Z,97088.38
2022-08-22T19:02:20.481Z,97097.72
2022-08-22T19:05:24.658Z,97103.13
2022-08-22T19:08:35.096Z,97111.44
2022-08-22T19:11:48.991Z,97104.69
2022-08-22T19:15:09.133Z,97102.41
2022-08-22T19:18:13.410Z,97115.88
2022-08-22T19:21:37.885Z,97116.28
2022-08-22T19:24:58.158Z,97121.09
2022-08-22T19:28:09.330Z,97118.34
2022-08-22T19:31:44.123Z,97124.78
2022-08-22T19:34:47.653Z,97119.56
2022-08-22T19:37:59.681Z,97122.44
2022-08-22T19:41:02.973Z,97123.28
2022-08-22T19:44:04.375Z,97117.53
2022-08-22T19:47:11.987Z,97119.38
2022-08-22T19:50:16.370Z,97115.78
2022-08-22T19:53:19.255Z,97115.34
2022-08-22T19:56:23.669Z,97123.25
2022-08-22T19:59:50.557Z,97118.31
2022-08-22T20:02:58.423Z,97126.66
2022-08-22T20:06:06.983Z,97125.25
2022-08-22T20:09:30.488Z,97124.13
2022-08-22T20:12:32.150Z,97126.53
2022-08-22T20:15:35.945Z,97124.69
2022-08-22T20:19:05.512Z,97125.94
2022-08-22T20:22:15.970Z,97123.59
2022-08-22T20:25:43.160Z,97128.16
2022-08-22T20:28:48.706Z,97133.47
2022-08-22T20:31:55.524Z,97141.91
2022-08-22T20:35:01.584Z,97132.88
2022-08-22T20:38:15.098Z,97149.44
2022-08-22T20:41:33.963Z,97151.81
2022-08-22T20:44:53.287Z,97153.28
2022-08-22T20:48:18.454Z,97160.44
2022-08-22T20:51:32.194Z,97158.25
2022-08-22T20:54:38.479Z,97151.59
2022-08-22T20:57:46.203Z,97155.06
2022-08-22T21:00:49.405Z,97148.38
2022-08-22T21:03:51.660Z,97153.47
2022-08-22T21:07:00.691Z,97148.00
2022-08-22T21:10:23.303Z,97155.91
2022-08-22T21:13:29.569Z,97148.63
2022-08-22T21:16:32.939Z,97154.66
2022-08-22T21:19:34.368Z,97162.84
2022-08-22T21:22:35.726Z,97159.97
2022-08-22T21:25:48.260Z,97167.97
2022-08-22T21:28:49.669Z,97172.16
2022-08-22T21:31:52.870Z,97168.84
2022-08-22T21:34:54.652Z,97164.94
2022-08-22T21:37:57.077Z,97168.41
2022-08-22T21:41:04.475Z,97166.44
2022-08-22T21:44:17.778Z,97172.94
2022-08-22T21:47:30.653Z,97180.91
2022-08-22T21:50:38.322Z,97183.31
2022-08-22T21:53:39.710Z,97180.31
2022-08-22T21:56:41.338Z,97183.94
2022-08-22T21:59:52.162Z,97180.41
2022-08-22T22:03:02.885Z,97179.50
2022-08-22T22:06:06.402Z,97170.91
2022-08-22T22:09:09.988Z,97169.06
2022-08-22T22:12:15.171Z,97172.94
2022-08-22T22:15:19.540Z,97178.50
2022-08-22T22:18:25.346Z,97184.47
2022-08-22T22:21:27.128Z,97186.19
2022-08-22T22:24:28.498Z,97191.28
2022-08-22T22:27:29.913Z,97194.31
2022-08-22T22:30:31.418Z,97196.66
2022-08-22T22:33:34.933Z,97194.88
2022-08-22T22:36:36.346Z,97194.53
2022-08-22T22:39:38.656Z,97200.69
2022-08-22T22:42:40.119Z,97204.97
2022-08-22T22:45:41.524Z,97203.31
2022-08-22T22:48:44.725Z,97207.69
2022-08-22T22:51:46.249Z,97204.78
2022-08-22T22:54:48.346Z,97208.19
2022-08-22T22:57:58.642Z,97205.97
2022-08-22T23:01:27.325Z,97209.13
2022-08-22T23:04:29.111Z,97210.63
2022-08-22T23:07:30.465Z,97209.72
2022-08-22T23:10:35.419Z,97208.31
2022-08-22T23:13:36.857Z,97213.50
2022-08-22T23:16:41.219Z,97214.25
2022-08-22T23:19:42.683Z,97212.31
2022-08-22T23:22:47.621Z,97217.22
2022-08-22T23:25:48.974Z,97220.94
2022-08-22T23:28:50.381Z,97222.97
2022-08-22T23:31:53.892Z,97230.09
2022-08-22T23:34:56.091Z,97232.28
2022-08-22T23:37:57.670Z,97232.91
2022-08-22T23:41:06.652Z,97242.34
2022-08-22T23:44:13.579Z,97240.03
2022-08-22T23:47:15.564Z,97227.66
2022-08-22T23:50:16.961Z,97229.06
2022-08-22T23:53:18.372Z,97233.38
2022-08-22T23:56:26.896Z,97234.25
2022-08-22T23:59:30.983Z,97227.66
